Bradshaw Army Airfield Camp Pohakuloa US
ICAO: PHSF
IATA:
Category: Medium
Scheduled Services:

Elevation: 6190 ft
TransAlt. 18000 ft.

Airport Communications:
HONOLULU CNTR:126
ATIS:124.7
CTAF:126.3
RANGE:38.3
PMSV METRO:122.75
HONOLULU RDO:25.54
TWR:41.5

PHSF Zoom In..

If Map Doesn't Load, Click Here

Runways:

(A) RW 09 length 3695 ft width 90 ft
---- / hdg 91

(B) RW 27 length 3695 ft width 90 ft
---- / hdg 271

Location; PHSF
Day. 22 / Time. 00.56 Zulu
* Altimeter: 30.24
* Temperature: 21° c. 69.8°f.
* Wind from: 260° Speed 07 kn with Gusts up to 14 kn.
Dewpoint: 15° c.
Visibility: 10 Statute Miles.
Clouds: Scattered 3000 ft.

PHSF 220056Z 26007G14KT 10SM SCT030 21/15 A3024 RMK AO2A SLP122 WND DATA ESTMD T02110146 $


Wind From 260°
Speed 07 kn.

 
 
jpsmedia.com for Web Design worldairports.se 2018   terms of use